Time;durP1;ratioP1;P1;durP2;ratioP2;P2;SDS_P1;SDS_P2;PMS_P1;PMS_P2;Temp;Humidity;BMP_temperature;BMP_pressure;BME280_temperature;BME280_humidity;BME280_pressure;Samples;Min_cycle;Max_cycle;Signal;HPM_P1;HPM_P2
2022/01/02 00:00:08;;;;;;;6.23;4.53;;;9.10;99.90;;;9.85;100.00;-20062.34;5012111;28;20210;-61
2022/01/02 00:02:37;;;;;;;7.07;4.70;;;9.10;99.90;;;10.11;100.00;-20071.06;5013161;28;20277;-62
2022/01/02 00:05:09;;;;;;;6.43;4.87;;;9.10;99.90;;;9.97;100.00;-20066.09;5008677;28;20328;-61
2022/01/02 00:07:58;;;;;;;9.63;4.60;;;9.10;99.90;;;9.69;100.00;-20056.88;5009210;28;20334;-60
2022/01/02 00:10:31;;;;;;;6.53;4.93;;;9.00;99.90;;;9.61;100.00;-20054.13;5009428;28;20250;-62
2022/01/02 00:13:02;;;;;;;6.63;4.57;;;8.90;99.90;;;9.86;100.00;-20062.69;5009964;28;20222;-62
2022/01/02 00:15:32;;;;;;;5.07;4.30;;;8.90;99.90;;;9.70;100.00;-20057.03;5009598;28;20727;-60
2022/01/02 00:18:07;;;;;;;5.93;4.50;;;8.90;99.90;;;9.67;100.00;-20056.19;5010109;28;20718;-61
2022/01/02 00:20:45;;;;;;;7.77;4.63;;;8.90;99.90;;;9.71;100.00;-20057.56;4991121;28;20222;-61
2022/01/02 00:23:19;;;;;;;6.40;4.57;;;8.90;99.90;;;9.77;100.00;-20059.59;5009160;28;20222;-61
2022/01/02 00:25:54;;;;;;;6.90;4.47;;;8.90;99.90;;;9.76;100.00;-20059.25;5010074;28;20218;-62
2022/01/02 00:28:23;;;;;;;6.80;4.43;;;9.00;99.90;;;10.02;100.00;-20067.97;5009609;28;20234;-61
2022/01/02 00:30:51;;;;;;;8.23;4.40;;;9.00;99.90;;;9.86;100.00;-20062.69;5009571;28;20226;-62
2022/01/02 00:33:21;;;;;;;5.97;4.20;;;9.10;99.90;;;9.83;100.00;-20061.66;5009283;28;20772;-60
2022/01/02 00:35:49;;;;;;;7.47;4.80;;;9.00;99.90;;;9.64;100.00;-20055.16;5009907;28;20203;-61
2022/01/02 00:38:22;;;;;;;5.47;4.50;;;9.00;99.90;;;9.74;100.00;-20058.56;5009693;28;20682;-62
2022/01/02 00:40:55;;;;;;;4.77;3.93;;;9.00;99.90;;;9.75;100.00;-20058.75;5009513;28;20226;-60
2022/01/02 00:43:39;;;;;;;7.43;4.47;;;9.00;99.90;;;9.78;100.00;-20059.78;5008184;28;20711;-61
2022/01/02 00:46:14;;;;;;;6.47;4.30;;;9.00;99.90;;;9.61;100.00;-20054.13;5008725;28;20300;-62
2022/01/02 00:48:46;;;;;;;4.67;4.27;;;9.00;99.90;;;9.84;100.00;-20062.00;5006446;28;20416;-60
2022/01/02 00:51:28;;;;;;;5.40;4.13;;;9.00;99.90;;;9.65;100.00;-20055.34;5009283;28;20234;-62
2022/01/02 00:54:00;;;;;;;7.17;4.77;;;9.00;99.90;;;9.72;100.00;-20057.88;5008705;28;20610;-60
2022/01/02 00:56:32;;;;;;;4.83;4.33;;;8.90;99.90;;;9.52;100.00;-20051.06;5010162;28;20575;-60
2022/01/02 00:59:06;;;;;;;6.07;5.13;;;8.90;99.90;;;9.40;100.00;-20046.97;5008651;28;20312;-60
2022/01/02 01:01:35;;;;;;;6.97;4.57;;;8.80;99.90;;;9.44;100.00;-20048.31;5007782;28;20223;-61
2022/01/02 01:04:08;;;;;;;4.47;4.00;;;8.80;99.90;;;9.42;100.00;-20047.66;5008305;28;20313;-60
2022/01/02 01:06:41;;;;;;;8.40;4.30;;;8.70;99.90;;;9.58;100.00;-20053.13;5009124;28;20226;-61
2022/01/02 01:09:09;;;;;;;5.30;4.20;;;8.80;99.90;;;9.55;100.00;-20051.91;5008451;28;20234;-61
2022/01/02 01:11:45;;;;;;;6.43;4.40;;;8.70;99.90;;;9.77;100.00;-20059.44;5010423;28;20203;-59
2022/01/02 01:14:14;;;;;;;5.33;4.33;;;8.80;99.90;;;9.55;100.00;-20052.09;5008710;28;20691;-61
2022/01/02 01:16:43;;;;;;;5.73;4.43;;;8.80;99.90;;;9.79;100.00;-20060.28;5008885;28;20223;-63
2022/01/02 01:19:12;;;;;;;7.83;4.37;;;8.80;99.90;;;9.60;100.00;-20053.78;5008291;28;20281;-61
2022/01/02 01:21:40;;;;;;;7.03;4.73;;;8.90;99.90;;;9.63;100.00;-20054.81;5008986;28;20309;-61
2022/01/02 01:24:09;;;;;;;5.87;4.40;;;8.90;99.90;;;9.53;100.00;-20051.22;5008372;28;20230;-62
2022/01/02 01:26:40;;;;;;;6.90;4.50;;;8.90;99.90;;;9.93;100.00;-20064.72;5009100;28;20728;-60
2022/01/02 01:29:08;;;;;;;5.83;4.43;;;8.90;99.90;;;9.81;100.00;-20060.78;5007623;28;20222;-61
2022/01/02 01:31:37;;;;;;;6.50;4.37;;;9.00;99.90;;;9.62;100.00;-20054.31;5008198;28;20230;-61
2022/01/02 01:34:05;;;;;;;5.23;3.90;;;8.90;99.90;;;9.82;100.00;-20061.13;5008580;28;20226;-61
2022/01/02 01:36:34;;;;;;;5.03;4.17;;;8.90;99.90;;;9.71;100.00;-20057.38;5008832;28;20235;-61
2022/01/02 01:39:02;;;;;;;5.30;3.97;;;8.90;99.90;;;10.04;100.00;-20068.66;5008292;28;20284;-61
2022/01/02 01:41:36;;;;;;;5.40;4.43;;;9.00;99.90;;;9.76;100.00;-20059.25;5008889;28;20195;-61
2022/01/02 01:44:26;;;;;;;5.90;3.90;;;9.00;99.90;;;9.85;100.00;-20062.16;5008630;28;20309;-59
2022/01/02 01:46:56;;;;;;;6.27;4.30;;;9.00;99.90;;;9.92;100.00;-20064.56;5008379;28;20218;-61
2022/01/02 01:49:27;;;;;;;6.57;4.17;;;9.00;99.90;;;9.90;100.00;-20063.88;5008127;28;20215;-60
2022/01/02 01:51:56;;;;;;;4.93;3.90;;;9.00;99.90;;;9.94;100.00;-20065.06;5009095;28;20231;-61
2022/01/02 01:54:26;;;;;;;5.67;3.73;;;9.00;99.90;;;9.82;100.00;-20061.13;5009348;28;20230;-60
2022/01/02 01:56:55;;;;;;;4.93;4.03;;;9.00;99.90;;;9.85;100.00;-20062.16;5012587;28;20656;-60
2022/01/02 01:59:26;;;;;;;4.87;3.43;;;9.10;99.90;;;9.99;100.00;-20066.78;5013140;28;20191;-61
2022/01/02 02:01:55;;;;;;;8.37;3.97;;;9.10;99.90;;;10.04;100.00;-20068.66;5012369;28;20650;-61
2022/01/02 02:04:23;;;;;;;5.90;3.70;;;9.10;99.90;;;9.85;100.00;-20062.16;5012186;28;20317;-59
2022/01/02 02:06:53;;;;;;;6.87;4.00;;;9.00;99.90;;;9.91;100.00;-20064.22;5011858;28;20230;-60
2022/01/02 02:09:24;;;;;;;6.77;3.67;;;9.10;99.90;;;9.94;100.00;-20065.25;5011834;28;20276;-60
2022/01/02 02:11:58;;;;;;;5.27;3.53;;;9.10;99.90;;;9.95;100.00;-20065.41;5012088;28;20242;-61
2022/01/02 02:14:28;;;;;;;5.47;3.83;;;9.10;99.90;;;9.89;100.00;-20063.69;5012482;28;20937;-61
2022/01/02 02:16:57;;;;;;;6.03;3.57;;;9.10;99.90;;;9.72;100.00;-20057.88;5011192;28;20226;-61
2022/01/02 02:19:25;;;;;;;5.03;4.37;;;9.00;99.90;;;9.64;100.00;-20055.16;5011106;28;20229;-60
2022/01/02 02:21:56;;;;;;;4.37;3.50;;;9.00;99.90;;;9.59;100.00;-20053.44;5012220;28;20321;-60
2022/01/02 02:24:24;;;;;;;5.10;3.50;;;8.90;99.90;;;9.52;100.00;-20050.91;5012540;28;20218;-61
2022/01/02 02:26:53;;;;;;;5.37;3.60;;;8.80;99.90;;;9.64;100.00;-20055.00;5011504;28;20202;-61
2022/01/02 02:29:21;;;;;;;6.20;3.70;;;8.90;99.90;;;9.72;100.00;-20057.72;5011820;28;20237;-61
2022/01/02 02:31:53;;;;;;;4.57;3.57;;;8.90;99.90;;;9.63;100.00;-20054.81;5011242;28;20238;-61
2022/01/02 02:34:21;;;;;;;4.10;3.50;;;8.80;99.90;;;9.58;100.00;-20053.13;5011636;28;20226;-64
2022/01/02 02:36:50;;;;;;;5.40;3.57;;;8.80;99.90;;;9.64;100.00;-20055.16;5011395;28;20233;-60
2022/01/02 02:39:20;;;;;;;4.90;3.67;;;8.80;99.90;;;9.79;100.00;-20060.13;5011263;28;20233;-60
2022/01/02 02:41:48;;;;;;;6.00;3.50;;;8.90;99.90;;;9.74;100.00;-20058.56;5011600;28;20222;-61
2022/01/02 02:44:32;;;;;;;4.43;3.47;;;8.90;99.90;;;9.93;100.00;-20064.72;5012469;28;20207;-59
2022/01/02 02:49:46;;;;;;;4.07;3.17;;;9.10;99.90;;;9.82;100.00;-20061.13;5011186;28;20227;-61
2022/01/02 02:52:25;;;;;;;5.40;3.57;;;9.10;99.90;;;9.77;100.00;-20059.44;5011325;28;20242;-60
2022/01/02 02:54:55;;;;;;;4.87;3.20;;;9.00;99.90;;;9.82;100.00;-20061.31;5010219;28;20238;-61
2022/01/02 02:57:24;;;;;;;5.70;3.10;;;9.00;99.90;;;9.61;100.00;-20054.13;5010746;28;20226;-60
2022/01/02 02:59:52;;;;;;;3.90;3.37;;;8.90;99.90;;;9.63;100.00;-20054.81;5011413;28;20202;-61
2022/01/02 03:02:20;;;;;;;4.20;3.27;;;8.90;99.90;;;9.58;100.00;-20052.94;5011777;28;20253;-60
2022/01/02 03:04:49;;;;;;;5.60;3.53;;;8.80;99.90;;;9.34;100.00;-20044.91;5010580;28;20234;-60
2022/01/02 03:07:17;;;;;;;5.00;3.70;;;8.70;99.90;;;9.36;100.00;-20045.41;5010784;28;20733;-60
2022/01/02 03:09:49;;;;;;;6.07;3.40;;;8.70;99.90;;;9.30;100.00;-20043.38;5011041;28;20225;-60
2022/01/02 03:12:19;;;;;;;4.30;3.13;;;8.70;99.90;;;9.45;100.00;-20048.66;5010972;28;20281;-60
2022/01/02 03:14:47;;;;;;;4.03;3.60;;;8.70;99.90;;;9.30;100.00;-20043.38;5010903;28;20206;-60
2022/01/02 03:17:16;;;;;;;4.67;2.93;;;8.60;99.90;;;9.37;100.00;-20045.78;5010725;28;20293;-60
2022/01/02 03:19:44;;;;;;;5.90;3.10;;;8.60;99.90;;;9.52;100.00;-20051.06;5010180;28;20222;-60
2022/01/02 03:22:14;;;;;;;3.77;2.90;;;8.70;99.90;;;9.42;100.00;-20047.66;5010742;28;20257;-61
2022/01/02 03:24:42;;;;;;;4.87;3.17;;;8.70;99.90;;;9.35;100.00;-20045.25;5011302;28;20230;-61
2022/01/02 03:27:11;;;;;;;4.83;3.10;;;8.70;99.90;;;9.59;100.00;-20053.44;5011140;28;20606;-61
2022/01/02 03:29:42;;;;;;;3.50;2.67;;;8.70;99.90;;;9.59;100.00;-20053.28;5011708;28;20206;-61
2022/01/02 03:32:12;;;;;;;3.53;2.60;;;8.70;99.90;;;9.37;100.00;-20045.94;5010006;28;20227;-61
2022/01/02 03:34:40;;;;;;;5.47;3.00;;;8.70;99.90;;;9.17;100.00;-20039.09;5010632;28;20222;-60
2022/01/02 03:37:09;;;;;;;5.53;3.20;;;8.50;99.90;;;9.28;100.00;-20042.88;5015862;28;20237;-61
2022/01/02 03:39:38;;;;;;;5.00;3.20;;;8.50;99.90;;;9.18;100.00;-20039.28;5009942;28;20234;-60
2022/01/02 03:42:08;;;;;;;4.27;3.10;;;8.50;99.90;;;9.24;100.00;-20041.31;5011063;28;20300;-61
2022/01/02 03:44:36;;;;;;;5.73;3.33;;;8.50;99.90;;;9.03;100.00;-20034.31;5011659;28;20198;-60
2022/01/02 03:47:07;;;;;;;4.20;2.97;;;8.50;99.90;;;9.05;100.00;-20034.84;5009569;28;20266;-60
2022/01/02 03:49:35;;;;;;;4.43;3.47;;;8.40;99.90;;;9.15;100.00;-20038.25;5009543;28;20257;-60
2022/01/02 03:52:04;;;;;;;5.17;3.43;;;8.40;99.90;;;9.21;100.00;-20040.47;5010417;28;20722;-60
2022/01/02 03:54:33;;;;;;;4.70;3.30;;;8.40;99.90;;;9.01;100.00;-20033.47;4994481;28;20728;-62
2022/01/02 03:57:01;;;;;;;4.73;3.27;;;8.40;99.90;;;9.06;100.00;-20035.19;5009904;28;20250;-61
2022/01/02 03:59:30;;;;;;;4.47;3.10;;;8.40;99.90;;;9.05;100.00;-20035.00;5010902;28;20593;-61
2022/01/02 04:01:59;;;;;;;4.50;3.30;;;8.40;99.90;;;9.24;100.00;-20041.31;5010211;28;20230;-61
2022/01/02 04:04:29;;;;;;;7.00;3.77;;;8.40;99.90;;;9.14;100.00;-20038.06;5009855;28;20230;-61
2022/01/02 04:06:57;;;;;;;4.97;3.40;;;8.40;99.90;;;9.22;100.00;-20040.81;5009522;28;20234;-61
2022/01/02 04:09:26;;;;;;;4.77;3.70;;;8.50;99.90;;;9.18;100.00;-20039.44;5010361;28;20702;-61
2022/01/02 04:11:55;;;;;;;4.67;3.40;;;8.40;99.90;;;9.12;100.00;-20037.41;5010112;28;20207;-60
2022/01/02 04:14:24;;;;;;;5.60;3.60;;;8.50;99.90;;;9.33;100.00;-20044.41;5010680;28;20203;-60
2022/01/02 04:16:53;;;;;;;6.47;3.37;;;8.50;99.90;;;9.43;100.00;-20048.00;5008157;28;20766;-61
2022/01/02 04:19:21;;;;;;;4.83;3.30;;;8.60;99.90;;;9.35;100.00;-20045.09;5009326;28;20268;-61
2022/01/02 04:21:51;;;;;;;5.63;3.60;;;8.60;99.90;;;9.22;100.00;-20040.63;5008967;28;20971;-59
2022/01/02 04:24:19;;;;;;;4.83;3.73;;;8.60;99.90;;;9.34;100.00;-20044.75;5009482;28;20314;-60
2022/01/02 04:26:48;;;;;;;5.23;3.70;;;8.70;99.90;;;9.64;100.00;-20055.00;5009142;28;20203;-60
2022/01/02 04:29:16;;;;;;;6.30;3.50;;;8.70;99.90;;;9.66;100.00;-20055.84;5009770;28;20211;-60
2022/01/02 04:31:44;;;;;;;6.67;3.50;;;8.80;99.90;;;9.77;100.00;-20059.59;5009270;28;20280;-60
2022/01/02 04:34:13;;;;;;;5.83;3.90;;;8.90;99.90;;;9.56;100.00;-20052.25;4992874;28;20663;-60
2022/01/02 04:36:41;;;;;;;5.10;3.57;;;8.80;99.90;;;9.41;100.00;-20047.31;5013319;28;20230;-60
2022/01/02 04:39:10;;;;;;;5.97;3.50;;;8.80;99.90;;;9.37;100.00;-20045.94;5008811;28;20241;-59
2022/01/02 04:41:38;;;;;;;5.37;3.57;;;8.80;99.90;;;9.35;100.00;-20045.25;5009420;28;20198;-60
2022/01/02 04:44:06;;;;;;;5.27;3.70;;;8.70;99.90;;;9.25;100.00;-20041.84;5009231;28;20245;-60
2022/01/02 04:46:34;;;;;;;5.20;3.43;;;8.70;99.90;;;9.15;100.00;-20038.25;5008267;28;20222;-60
2022/01/02 04:49:02;;;;;;;5.13;3.90;;;8.60;99.90;;;9.34;100.00;-20044.75;5008466;28;20258;-60
2022/01/02 04:51:30;;;;;;;5.03;3.83;;;8.60;99.90;;;9.41;100.00;-20047.31;5008572;28;20313;-60
2022/01/02 04:53:58;;;;;;;7.20;4.03;;;8.60;99.90;;;9.48;100.00;-20049.53;5008366;28;20296;-61
2022/01/02 04:56:28;;;;;;;5.67;4.00;;;8.70;99.90;;;9.47;100.00;-20049.19;5008988;28;20305;-61
2022/01/02 04:58:56;;;;;;;6.00;3.70;;;8.70;99.90;;;9.36;100.00;-20045.59;5007975;28;20785;-60
2022/01/02 05:01:24;;;;;;;4.80;3.53;;;8.70;99.90;;;9.34;100.00;-20044.91;5008336;28;20226;-60
2022/01/02 05:03:52;;;;;;;6.50;4.00;;;8.70;99.90;;;9.47;100.00;-20049.34;5008736;28;20284;-61
2022/01/02 05:06:21;;;;;;;7.53;4.60;;;8.70;99.90;;;9.76;100.00;-20059.25;5009057;28;20229;-61
2022/01/02 05:08:49;;;;;;;4.83;3.50;;;8.70;99.90;;;9.63;100.00;-20054.66;5010126;28;20666;-61
2022/01/02 05:11:18;;;;;;;5.90;4.70;;;8.80;99.90;;;9.52;100.00;-20051.06;5029378;28;20194;-61
2022/01/02 05:13:47;;;;;;;5.13;4.13;;;8.80;99.90;;;9.46;100.00;-20048.84;5031434;28;20300;-61
2022/01/02 05:16:15;;;;;;;4.70;3.60;;;8.80;99.90;;;9.37;100.00;-20045.94;5031797;28;20258;-61
2022/01/02 05:18:44;;;;;;;6.13;4.03;;;8.70;99.90;;;9.38;100.00;-20046.09;5031625;28;20655;-61
2022/01/02 05:21:13;;;;;;;5.47;4.07;;;8.70;99.90;;;9.38;100.00;-20046.28;5031409;28;20253;-61
2022/01/02 05:23:42;;;;;;;7.93;4.40;;;8.70;99.90;;;9.39;100.00;-20046.44;5031458;28;20229;-61
2022/01/02 05:26:10;;;;;;;6.73;4.17;;;8.70;99.90;;;9.50;100.00;-20050.38;5008515;28;20210;-61
2022/01/02 05:28:38;;;;;;;6.27;4.20;;;8.70;99.90;;;9.47;100.00;-20049.34;5004010;28;20222;-60
2022/01/02 05:31:08;;;;;;;5.67;4.13;;;8.70;99.90;;;9.47;100.00;-20049.19;5011052;28;20674;-61
2022/01/02 05:33:36;;;;;;;6.00;4.47;;;8.70;99.90;;;9.41;100.00;-20047.31;5012272;28;20227;-60
2022/01/02 05:36:04;;;;;;;5.20;4.27;;;8.70;99.90;;;9.53;100.00;-20051.41;5012114;28;20317;-61
2022/01/02 05:38:32;;;;;;;5.87;4.30;;;8.70;99.90;;;9.59;100.00;-20053.44;5013322;28;20230;-60
2022/01/02 05:41:00;;;;;;;6.27;4.27;;;8.80;99.90;;;9.55;100.00;-20052.09;5012681;28;20305;-61
2022/01/02 05:43:29;;;;;;;5.83;4.40;;;8.80;99.90;;;9.86;100.00;-20062.69;5012300;28;20253;-61
2022/01/02 05:46:03;;;;;;;6.63;4.50;;;8.90;99.90;;;10.00;100.00;-20067.28;5012478;28;20277;-61
2022/01/02 05:48:34;;;;;;;6.70;4.30;;;9.00;99.90;;;9.92;100.00;-20064.38;5012944;28;20234;-61
2022/01/02 05:51:02;;;;;;;6.57;4.23;;;9.00;99.90;;;10.01;100.00;-20067.47;5013055;28;20292;-61
2022/01/02 05:53:31;;;;;;;6.50;4.47;;;9.10;99.90;;;9.82;100.00;-20061.13;5013395;28;20227;-61
2022/01/02 05:55:59;;;;;;;6.53;4.57;;;9.10;99.90;;;9.84;100.00;-20062.00;5012398;28;20245;-61
2022/01/02 05:58:27;;;;;;;6.63;4.07;;;9.00;99.90;;;10.01;100.00;-20067.47;5012115;28;20317;-61
2022/01/02 06:00:55;;;;;;;6.73;4.30;;;9.10;99.90;;;9.86;100.00;-20062.69;5011885;28;20317;-60
2022/01/02 06:03:24;;;;;;;9.23;4.77;;;9.10;99.90;;;9.93;100.00;-20064.72;5004420;28;20237;-61
2022/01/02 06:05:53;;;;;;;8.00;5.13;;;9.00;99.90;;;9.92;100.00;-20064.38;5011695;28;20659;-61
2022/01/02 06:08:21;;;;;;;5.33;4.10;;;9.00;99.90;;;9.84;100.00;-20061.81;5012698;28;20201;-61
2022/01/02 06:10:50;;;;;;;4.33;3.93;;;9.00;99.90;;;10.06;100.00;-20069.34;5011598;28;20232;-61
2022/01/02 06:13:18;;;;;;;4.57;4.07;;;9.10;99.90;;;10.02;100.00;-20067.97;5011783;28;20736;-61
2022/01/02 06:15:46;;;;;;;6.00;3.87;;;9.10;99.90;;;9.95;100.00;-20065.59;5011308;28;20272;-61
2022/01/02 06:18:14;;;;;;;7.17;4.03;;;9.10;99.90;;;9.86;100.00;-20062.50;5011455;28;20235;-62
2022/01/02 06:20:42;;;;;;;6.30;3.77;;;9.10;99.90;;;9.78;100.00;-20059.78;5011481;28;20261;-61
2022/01/02 06:23:12;;;;;;;6.43;4.13;;;9.00;99.90;;;9.76;100.00;-20059.09;5011648;28;20234;-60
2022/01/02 06:25:40;;;;;;;6.30;4.33;;;9.00;99.90;;;10.05;100.00;-20069.00;5010465;28;20219;-60
2022/01/02 06:28:08;;;;;;;5.50;3.77;;;9.10;99.90;;;9.75;100.00;-20058.75;5011272;28;20250;-60
2022/01/02 06:30:36;;;;;;;5.77;4.13;;;9.10;99.90;;;9.77;100.00;-20059.59;5011443;28;20254;-60
2022/01/02 06:33:05;;;;;;;5.73;4.10;;;9.00;99.90;;;9.94;100.00;-20065.06;5011324;28;20324;-61
2022/01/02 06:35:35;;;;;;;4.97;3.97;;;9.10;99.90;;;9.98;100.00;-20066.59;5011802;28;20285;-62
2022/01/02 06:38:14;;;;;;;6.13;3.90;;;9.10;99.90;;;9.85;100.00;-20062.34;5011198;28;20296;-61
2022/01/02 06:40:42;;;;;;;8.40;4.10;;;9.10;99.90;;;9.72;100.00;-20057.72;5010399;28;20310;-61
2022/01/02 06:43:13;;;;;;;6.70;4.20;;;9.00;99.90;;;9.84;100.00;-20062.00;5011179;28;20778;-61
2022/01/02 06:45:41;;;;;;;4.80;3.93;;;9.00;99.90;;;9.93;100.00;-20064.72;5011091;28;20250;-61
2022/01/02 06:48:09;;;;;;;4.27;3.83;;;9.00;99.90;;;10.19;100.00;-20073.63;5011238;28;20234;-61
2022/01/02 06:50:39;;;;;;;5.17;4.40;;;9.10;99.90;;;10.04;100.00;-20068.66;5012091;28;20206;-61
2022/01/02 06:53:07;;;;;;;5.10;4.00;;;9.10;99.90;;;9.97;100.00;-20066.09;5010048;28;20710;-62
2022/01/02 06:55:37;;;;;;;5.30;3.97;;;9.10;99.90;;;10.08;100.00;-20069.84;5005200;28;20230;-61
2022/01/02 06:58:05;;;;;;;5.33;4.20;;;9.10;99.90;;;9.94;100.00;-20065.06;5011075;28;20237;-62
2022/01/02 07:00:34;;;;;;;6.57;4.23;;;9.10;99.90;;;9.93;100.00;-20064.91;5011081;28;20745;-61
2022/01/02 07:03:03;;;;;;;5.27;3.73;;;9.10;99.90;;;9.93;100.00;-20064.72;5010985;28;20238;-61
2022/01/02 07:05:31;;;;;;;5.60;3.90;;;9.10;99.90;;;10.05;100.00;-20069.00;5010597;28;20202;-62
2022/01/02 07:08:00;;;;;;;5.73;3.93;;;9.10;99.90;;;10.06;100.00;-20069.34;5019343;28;20246;-62
2022/01/02 07:10:28;;;;;;;5.80;4.00;;;9.10;99.90;;;10.17;100.00;-20072.94;5009983;28;20226;-62
2022/01/02 07:12:57;;;;;;;5.93;3.73;;;9.20;99.90;;;10.07;100.00;-20069.50;5010550;28;20612;-62
2022/01/02 07:15:26;;;;;;;5.87;4.00;;;9.20;99.90;;;10.08;100.00;-20070.03;4995833;28;20257;-62
2022/01/02 07:17:54;;;;;;;4.97;4.23;;;9.20;99.90;;;10.13;100.00;-20071.56;5016032;28;20227;-62
2022/01/02 07:20:22;;;;;;;6.67;4.30;;;9.20;99.90;;;10.07;100.00;-20069.69;5010613;28;20287;-62
2022/01/02 07:22:50;;;;;;;5.90;4.17;;;9.20;99.90;;;10.00;100.00;-20067.28;4995913;28;20227;-62
2022/01/02 07:25:19;;;;;;;4.93;4.13;;;9.20;99.90;;;10.07;100.00;-20069.69;5009773;28;20223;-61
2022/01/02 07:27:47;;;;;;;5.40;4.50;;;9.20;99.90;;;9.99;100.00;-20066.78;5010392;28;20305;-62
2022/01/02 07:30:16;;;;;;;5.30;4.00;;;9.20;99.90;;;9.99;100.00;-20066.94;5014354;28;20226;-62
2022/01/02 07:32:47;;;;;;;4.13;3.73;;;9.20;99.90;;;10.11;100.00;-20070.88;5010922;28;20233;-61
2022/01/02 07:35:15;;;;;;;5.93;3.90;;;9.20;99.90;;;10.11;100.00;-20071.06;5010922;28;21004;-62
2022/01/02 07:37:44;;;;;;;5.77;4.07;;;9.20;99.90;;;10.18;100.00;-20073.44;5009563;28;20238;-63
2022/01/02 07:40:12;;;;;;;5.07;3.80;;;9.30;99.90;;;10.27;100.00;-20076.34;5006748;28;20233;-62
2022/01/02 07:42:41;;;;;;;5.40;4.07;;;9.30;99.90;;;10.22;100.00;-20074.81;5010274;28;20398;-62
2022/01/02 07:45:09;;;;;;;6.70;3.97;;;9.30;99.90;;;10.25;100.00;-20075.84;5011148;28;20238;-62
2022/01/02 07:47:40;;;;;;;5.73;3.80;;;9.30;99.90;;;10.30;100.00;-20077.53;5006740;28;20241;-61
2022/01/02 07:50:10;;;;;;;4.33;3.53;;;9.40;99.90;;;10.17;100.00;-20072.94;5008262;28;21091;-61
2022/01/02 07:52:38;;;;;;;6.10;4.30;;;9.40;99.90;;;10.13;100.00;-20071.72;5006570;28;20583;-62
2022/01/02 07:55:07;;;;;;;5.80;3.70;;;9.40;99.90;;;10.07;100.00;-20069.50;5008945;28;20258;-63
2022/01/02 07:57:36;;;;;;;4.90;3.83;;;9.30;99.90;;;10.09;100.00;-20070.19;5006295;28;20222;-62
2022/01/02 08:00:06;;;;;;;3.83;3.43;;;9.30;99.90;;;10.07;100.00;-20069.50;5008395;28;20656;-63
2022/01/02 08:02:36;;;;;;;4.50;3.63;;;9.30;99.90;;;10.24;100.00;-20075.50;5006877;28;20663;-62
2022/01/02 08:05:10;;;;;;;4.53;3.53;;;9.40;99.90;;;10.39;100.00;-20080.44;5010698;28;20329;-62
2022/01/02 08:07:39;;;;;;;3.70;3.27;;;9.40;99.90;;;10.44;100.00;-20082.16;5009293;28;20827;-63
2022/01/02 08:10:08;;;;;;;6.53;4.97;;;9.50;99.90;;;10.58;100.00;-20086.94;5011532;28;20234;-62
2022/01/02 08:12:37;;;;;;;4.87;3.40;;;9.60;99.90;;;10.46;100.00;-20083.00;5009149;28;20231;-62
2022/01/02 08:15:06;;;;;;;7.77;3.77;;;9.60;99.90;;;10.50;100.00;-20084.22;5011858;28;20310;-62
2022/01/02 08:17:34;;;;;;;4.10;3.47;;;9.60;99.90;;;10.63;100.00;-20088.81;5011990;28;20225;-62
2022/01/02 08:20:03;;;;;;;5.27;3.53;;;9.60;99.90;;;10.50;100.00;-20084.22;5011073;28;20226;-62
2022/01/02 08:22:32;;;;;;;4.70;3.57;;;9.60;99.90;;;10.47;100.00;-20083.19;5011460;28;20237;-62
2022/01/02 08:25:01;;;;;;;6.33;3.70;;;9.60;99.90;;;10.50;100.00;-20084.38;5011629;28;20258;-62
2022/01/02 08:27:31;;;;;;;5.07;4.10;;;9.60;99.90;;;10.55;100.00;-20086.09;5011601;28;20639;-62
2022/01/02 08:29:59;;;;;;;6.57;4.03;;;9.70;99.90;;;10.63;100.00;-20088.66;5006923;28;20602;-62
2022/01/02 08:32:27;;;;;;;4.90;3.70;;;9.70;99.90;;;10.81;100.00;-20094.78;5012406;28;20252;-62
2022/01/02 08:34:56;;;;;;;5.43;3.80;;;9.70;99.90;;;11.18;100.00;-20107.44;5008426;28;20223;-62
2022/01/02 08:37:24;;;;;;;4.40;3.60;;;9.80;99.90;;;11.05;100.00;-20103.00;5014034;28;20272;-62
2022/01/02 08:39:53;;;;;;;5.70;3.17;;;10.00;99.90;;;11.20;100.00;-20108.13;5010499;28;20230;-61
2022/01/02 08:42:21;;;;;;;3.77;3.37;;;10.00;99.90;;;11.11;100.00;-20105.03;5012283;28;20303;-62
2022/01/02 08:44:49;;;;;;;4.53;3.43;;;10.10;99.90;;;11.05;100.00;-20103.00;5011121;28;20742;-62
2022/01/02 08:47:17;;;;;;;4.53;3.10;;;10.10;99.90;;;11.14;100.00;-20106.06;5011825;28;20237;-63
2022/01/02 08:49:46;;;;;;;3.30;3.00;;;10.10;99.90;;;11.44;100.00;-20116.31;5010856;28;20317;-62
2022/01/02 08:52:14;;;;;;;5.47;4.00;;;10.20;99.90;;;11.50;100.00;-20118.34;5013053;28;20230;-62
2022/01/02 08:54:43;;;;;;;5.17;4.13;;;10.30;99.90;;;11.44;100.00;-20116.31;5012331;28;20230;-62
2022/01/02 08:57:13;;;;;;;3.50;3.20;;;10.40;99.90;;;11.27;100.00;-20110.50;5012658;28;20277;-62
2022/01/02 08:59:41;;;;;;;4.83;3.20;;;10.40;99.90;;;11.17;100.00;-20106.91;5012607;28;20215;-62
2022/01/02 09:02:10;;;;;;;3.93;3.00;;;10.30;99.90;;;11.14;100.00;-20105.91;5013018;28;20265;-63
2022/01/02 09:04:38;;;;;;;5.17;3.67;;;10.30;99.90;;;11.27;100.00;-20110.34;5011987;28;20286;-62
2022/01/02 09:07:06;;;;;;;4.10;2.97;;;10.30;99.90;;;11.29;100.00;-20111.19;5012288;28;20226;-64
2022/01/02 09:09:35;;;;;;;4.23;2.80;;;10.30;99.90;;;11.26;100.00;-20110.16;5011555;28;20305;-63
2022/01/02 09:12:04;;;;;;;3.23;2.73;;;10.30;99.90;;;11.33;100.00;-20112.56;5022767;28;20256;-63
2022/01/02 09:14:33;;;;;;;3.97;3.20;;;10.40;99.90;;;11.26;100.00;-20110.16;5018334;28;20246;-63
2022/01/02 09:17:02;;;;;;;3.30;2.70;;;10.40;99.90;;;11.34;100.00;-20112.91;5030019;28;20364;-63
2022/01/02 09:19:30;;;;;;;5.63;3.30;;;10.40;99.90;;;11.41;100.00;-20115.13;5031932;28;20316;-61
2022/01/02 09:21:59;;;;;;;4.63;3.00;;;10.50;99.90;;;11.49;100.00;-20118.03;5031772;28;20234;-62
2022/01/02 09:24:27;;;;;;;5.13;3.10;;;10.50;99.90;;;11.40;100.00;-20114.78;5032083;28;20234;-63
2022/01/02 09:26:55;;;;;;;4.77;3.30;;;10.50;99.90;;;11.32;100.00;-20112.22;5031838;28;20216;-61
2022/01/02 09:29:24;;;;;;;3.70;2.83;;;10.50;99.90;;;11.36;100.00;-20113.59;5000187;28;20313;-62
2022/01/02 09:31:54;;;;;;;4.13;3.13;;;10.50;99.90;;;11.32;100.00;-20112.22;5011684;28;20268;-63
2022/01/02 09:34:22;;;;;;;3.50;2.93;;;10.50;99.90;;;11.37;100.00;-20113.91;5012131;28;20309;-63
2022/01/02 09:36:50;;;;;;;5.93;3.50;;;10.50;99.90;;;11.38;100.00;-20114.25;5011853;28;20321;-62
2022/01/02 09:39:18;;;;;;;4.37;3.63;;;10.50;99.90;;;11.37;100.00;-20113.91;5012247;28;20323;-64
2022/01/02 09:41:46;;;;;;;5.43;3.10;;;10.50;99.90;;;11.41;100.00;-20115.28;5011109;28;20690;-62
2022/01/02 09:44:14;;;;;;;5.23;2.80;;;10.50;99.90;;;11.56;100.00;-20120.41;5012183;28;20242;-62
2022/01/02 09:46:44;;;;;;;5.20;3.40;;;10.50;99.90;;;11.58;100.00;-20121.09;5011217;28;20255;-60
2022/01/02 09:49:14;;;;;;;3.80;3.30;;;10.60;99.90;;;11.71;100.00;-20125.38;5008126;28;20219;-60
2022/01/02 09:51:42;;;;;;;3.80;3.00;;;10.60;99.90;;;11.59;100.00;-20121.25;5020914;28;20234;-60
2022/01/02 09:54:11;;;;;;;5.50;3.47;;;10.60;99.90;;;11.77;100.00;-20127.59;5031159;28;20253;-60
2022/01/02 09:56:39;;;;;;;4.33;3.47;;;10.60;99.90;;;11.80;100.00;-20128.44;5031755;28;20301;-60
2022/01/02 09:59:07;;;;;;;4.23;3.20;;;10.70;99.90;;;11.69;100.00;-20124.84;5012003;28;20223;-60
2022/01/02 10:01:37;;;;;;;4.27;3.00;;;10.70;99.90;;;11.70;100.00;-20125.19;5010883;28;20317;-61
2022/01/02 10:04:05;;;;;;;3.83;3.10;;;10.70;99.90;;;11.55;100.00;-20119.91;5028302;28;20249;-60
2022/01/02 10:06:47;;;;;;;5.20;3.00;;;10.60;99.90;;;11.55;100.00;-20119.91;5031414;28;20305;-59
2022/01/02 10:09:17;;;;;;;4.17;3.37;;;10.60;99.90;;;11.51;100.00;-20118.53;5029613;28;20747;-60
2022/01/02 10:11:45;;;;;;;5.60;3.53;;;10.60;99.90;;;11.63;100.00;-20122.81;5011452;28;20278;-59
2022/01/02 10:14:14;;;;;;;4.50;3.67;;;10.70;99.90;;;11.72;100.00;-20125.88;5011319;28;20210;-60
2022/01/02 10:16:43;;;;;;;4.93;3.30;;;10.70;99.90;;;11.57;100.00;-20120.59;5013473;28;20305;-60
2022/01/02 10:19:20;;;;;;;3.73;3.30;;;10.70;99.90;;;11.53;100.00;-20119.38;5014240;28;20679;-60
2022/01/02 10:21:58;;;;;;;4.67;3.40;;;10.70;99.90;;;11.53;100.00;-20119.38;5014274;28;20233;-60
2022/01/02 10:24:31;;;;;;;7.23;4.20;;;10.70;99.90;;;11.53;100.00;-20119.38;4999381;28;21093;-60
2022/01/02 10:27:15;;;;;;;6.30;3.70;;;10.70;99.90;;;11.56;100.00;-20120.25;5014288;28;20651;-60